createdAt,value
2022-12-22T00:01:12.898Z,85.75
2022-12-22T00:06:35.168Z,85.43
2022-12-22T00:11:57.302Z,85.08
2022-12-22T00:17:21.577Z,85.13
2022-12-22T00:22:45.164Z,84.67
2022-12-22T00:28:08.420Z,84.97
2022-12-22T00:33:33.542Z,85.17
2022-12-22T00:38:55.764Z,85.31
2022-12-22T00:44:18.063Z,84.69
2022-12-22T00:49:45.365Z,84.53
2022-12-22T00:55:07.802Z,84.46
2022-12-22T01:00:36.155Z,84.56
2022-12-22T01:05:58.536Z,84.57
2022-12-22T01:11:22.025Z,84.67
2022-12-22T01:16:44.418Z,84.85
2022-12-22T01:22:06.784Z,85.05
2022-12-22T01:27:29.392Z,84.49
2022-12-22T01:32:51.842Z,85.23
2022-12-22T01:38:13.953Z,85.18
2022-12-22T01:43:43.805Z,85.42
2022-12-22T01:49:06.152Z,85.64
2022-12-22T01:54:29.126Z,85.96
2022-12-22T01:59:51.463Z,86.04
2022-12-22T02:05:16.513Z,85.89
2022-12-22T02:10:46.308Z,86.05
2022-12-22T02:16:16.971Z,86.29
2022-12-22T02:21:43.698Z,86.10
2022-12-22T02:27:10.490Z,86.00
2022-12-22T02:32:33.807Z,86.03
2022-12-22T02:38:37.525Z,85.99
2022-12-22T02:44:37.560Z,86.06
2022-12-22T02:50:13.285Z,86.06
2022-12-22T02:55:36.444Z,86.24
2022-12-22T03:00:59.672Z,86.11
2022-12-22T03:06:22.253Z,85.90
2022-12-22T03:11:45.258Z,85.68
2022-12-22T03:17:07.823Z,85.63
2022-12-22T03:22:30.408Z,85.71
2022-12-22T03:27:34.090Z,85.65
2022-12-22T03:32:37.904Z,85.72
2022-12-22T03:37:41.611Z,85.76
2022-12-22T03:43:03.925Z,85.87
2022-12-22T03:48:07.726Z,85.93
2022-12-22T03:53:11.725Z,85.95
2022-12-22T03:58:15.509Z,85.74
2022-12-22T04:03:19.284Z,85.53
2022-12-22T04:08:23.319Z,85.56
2022-12-22T04:13:27.132Z,85.57
2022-12-22T04:18:32.587Z,85.50
2022-12-22T04:23:36.411Z,85.31
2022-12-22T04:28:40.266Z,85.24
2022-12-22T04:33:44.211Z,85.28
2022-12-22T04:38:48.316Z,85.41
2022-12-22T04:43:52.026Z,85.75
2022-12-22T04:48:59.956Z,86.10
2022-12-22T04:54:04.556Z,86.29
2022-12-22T04:59:08.308Z,86.43
2022-12-22T05:04:12.062Z,86.34
2022-12-22T05:09:16.270Z,86.15
2022-12-22T05:14:20.053Z,86.12
2022-12-22T05:19:27.501Z,86.15
2022-12-22T05:24:34.537Z,86.13
2022-12-22T05:29:38.241Z,86.37
2022-12-22T05:34:42.098Z,86.72
2022-12-22T05:39:45.920Z,86.77
2022-12-22T05:44:49.624Z,86.91
2022-12-22T05:49:53.318Z,87.07
2022-12-22T05:55:01.734Z,87.10
2022-12-22T06:00:09.449Z,87.38
2022-12-22T06:05:16.532Z,86.78
2022-12-22T06:10:20.226Z,85.90
2022-12-22T06:15:23.893Z,86.45
2022-12-22T06:20:27.714Z,86.80
2022-12-22T06:25:31.458Z,86.93
2022-12-22T06:30:35.368Z,86.89
2022-12-22T06:35:39.169Z,86.83
2022-12-22T06:40:43.028Z,86.69
2022-12-22T06:45:46.791Z,86.57
2022-12-22T06:50:50.766Z,85.98
2022-12-22T06:55:54.429Z,85.10
2022-12-22T07:00:58.183Z,84.07
2022-12-22T07:06:01.903Z,84.59
2022-12-22T07:11:06.442Z,84.13
2022-12-22T07:16:11.234Z,83.94
2022-12-22T07:21:15.289Z,83.79
2022-12-22T07:26:18.979Z,84.48
2022-12-22T07:31:24.937Z,84.19
2022-12-22T07:36:28.781Z,84.48
2022-12-22T07:41:51.185Z,84.53
2022-12-22T07:46:55.786Z,84.68
2022-12-22T07:52:00.127Z,84.59
2022-12-22T07:57:04.720Z,84.32
2022-12-22T08:02:11.404Z,84.19
2022-12-22T08:07:15.362Z,84.08
2022-12-22T08:12:19.837Z,83.59
2022-12-22T08:17:23.634Z,83.16
2022-12-22T08:22:27.527Z,82.97
2022-12-22T08:27:40.171Z,82.79
2022-12-22T08:32:48.058Z,81.92
2022-12-22T08:37:52.786Z,80.89
2022-12-22T08:43:00.569Z,80.10
2022-12-22T08:48:04.760Z,80.48
2022-12-22T08:53:29.734Z,81.40
2022-12-22T08:58:34.029Z,81.16
2022-12-22T16:16:38.307Z,85.03
2022-12-22T16:21:44.287Z,85.32
2022-12-22T16:26:48.172Z,85.44
2022-12-22T16:31:53.900Z,85.56
2022-12-22T16:36:57.732Z,85.54
2022-12-22T16:42:01.491Z,85.49
2022-12-22T16:47:06.119Z,85.46
2022-12-22T16:52:16.929Z,85.51
2022-12-22T16:57:20.715Z,85.85
2022-12-22T17:02:30.403Z,85.62
2022-12-22T17:07:34.183Z,85.72
2022-12-22T17:12:37.997Z,85.73
2022-12-22T17:17:42.526Z,85.71
2022-12-22T17:22:52.440Z,85.63
2022-12-22T17:27:57.123Z,85.78
2022-12-22T17:33:00.795Z,85.66
2022-12-22T17:38:04.951Z,85.63
2022-12-22T17:43:19.948Z,85.71
2022-12-22T17:48:23.619Z,85.71
2022-12-22T17:53:27.362Z,85.71
2022-12-22T17:58:31.206Z,85.68
2022-12-22T18:03:35.350Z,85.70
2022-12-22T18:08:39.248Z,85.71
2022-12-22T18:13:43.371Z,85.87
2022-12-22T18:18:47.461Z,86.15
2022-12-22T18:23:52.248Z,86.36
2022-12-22T18:28:56.690Z,86.35
2022-12-22T18:34:16.627Z,86.32
2022-12-22T18:39:21.221Z,86.28
2022-12-22T18:44:26.478Z,86.23
2022-12-22T18:49:31.398Z,86.34
2022-12-22T18:54:37.482Z,86.51
2022-12-22T18:59:41.903Z,86.58
2022-12-22T19:04:46.294Z,86.91
2022-12-22T19:09:51.413Z,86.99
2022-12-22T19:14:59.843Z,87.26
2022-12-22T19:20:05.300Z,87.30
2022-12-22T19:25:14.994Z,87.13
2022-12-22T19:30:23.743Z,87.20
2022-12-22T19:35:30.219Z,87.32
2022-12-22T19:40:35.106Z,87.42
2022-12-22T19:45:39.614Z,87.46
2022-12-22T19:50:43.579Z,87.45
2022-12-22T19:55:51.735Z,87.56
2022-12-22T20:00:56.387Z,87.81
2022-12-22T20:06:00.627Z,87.90
2022-12-22T20:11:12.708Z,87.92
2022-12-22T20:16:17.876Z,87.96
2022-12-22T20:21:27.622Z,88.15
2022-12-22T20:26:34.260Z,88.32
2022-12-22T20:31:39.013Z,88.26
2022-12-22T20:36:44.202Z,88.36
2022-12-22T20:41:53.325Z,88.38
2022-12-22T20:46:58.183Z,88.80
2022-12-22T20:52:02.714Z,89.06
2022-12-22T20:57:06.822Z,89.76
2022-12-22T21:02:23.484Z,90.37
2022-12-22T21:07:28.125Z,90.34
2022-12-22T21:12:32.915Z,90.61
2022-12-22T21:17:37.183Z,91.29
2022-12-22T21:22:43.294Z,91.90
2022-12-22T21:27:49.859Z,92.07
2022-12-22T21:32:54.521Z,92.41
2022-12-22T21:37:59.060Z,92.68
2022-12-22T21:43:02.827Z,92.76
2022-12-22T21:48:07.765Z,92.80
2022-12-22T21:53:19.818Z,92.80
2022-12-22T21:58:25.904Z,92.59
2022-12-22T22:03:30.263Z,92.25
2022-12-22T22:08:34.231Z,92.03
2022-12-22T22:13:38.025Z,91.45
2022-12-22T22:18:43.055Z,91.20
2022-12-22T22:23:46.759Z,90.96
2022-12-22T22:28:53.717Z,90.86
2022-12-22T22:33:57.823Z,90.85
2022-12-22T22:39:01.539Z,90.85
2022-12-22T22:44:05.508Z,90.94
2022-12-22T22:49:09.539Z,91.06
2022-12-22T22:54:13.442Z,91.30
2022-12-22T22:59:17.215Z,91.22
2022-12-22T23:04:21.019Z,91.17
2022-12-22T23:09:24.865Z,91.32
2022-12-22T23:14:28.670Z,91.98
2022-12-22T23:19:32.362Z,92.40
2022-12-22T23:24:36.093Z,92.27
2022-12-22T23:29:39.841Z,92.20
2022-12-22T23:34:43.588Z,92.36
2022-12-22T23:39:47.399Z,92.19
2022-12-22T23:44:51.065Z,92.05
2022-12-22T23:49:55.277Z,91.93
2022-12-22T23:54:58.983Z,91.88
